Check out our new PWSWeather beta!
PWSweather.com
Personal Weather Stations
Station Observations
KMNGREYC2
Grey Cloud Island, Grey Cloud Island, MN 55071

Grey Cloud IslandGrey Cloud Island, MN 55071

Lat: 44.799333, Lon: -92.987851

Elevation: 700

Station Type: Davis VP2

www.jagielski.com/weather/conditions.htm

High Low Average
Temperature 66.3°F19.1°C 50.4°F10.2°C 54.6°F12.6°C
Dew Point 65.1°F18.4°C 49.7°F9.8°C 53.5°F11.9°C
Winds 5.0 mph 8.0 kmh Calm Calm 1.0 mph S1.6 kmh S
Wind Gusts 9.0 mph14.5 kmh 1.0 mph1.6 kmh 5.0 mph8.0 kmh
Humidity 98% 94% 96%
Pressure 29.95 in1014.2 mb 29.74 in1007.1 mb -
Precipitation 0.00 in0.0 mm - -
Hour Temp Dew Point Humidity Winds Wind Gusts Pressure Precip Precip Rate Daily Precip Total
12:00 AM 66.3°F19.1°C 65.1°F18.4°C 96% Calm Calm 6.0 mph9.7 kmh 29.74 in1007.1 mb 0.00 in0.0 mm 0.00 in0.0 mm 0.00 in0.0 mm
12:15 AM 66.0°F18.9°C 64.8°F18.2°C 96% Calm Calm 4.0 mph6.4 kmh 29.75 in1007.5 mb 0.00 in0.0 mm 0.00 in0.0 mm 0.00 in0.0 mm
12:30 AM 65.6°F18.7°C 64.4°F18.0°C 96% Calm Calm 4.0 mph6.4 kmh 29.75 in1007.5 mb 0.00 in0.0 mm 0.00 in0.0 mm 0.00 in0.0 mm
12:45 AM 65.0°F18.3°C 63.8°F17.7°C 96% 4.0 mph NW6.4 kmh NW 8.0 mph12.9 kmh 29.78 in1008.5 mb 0.00 in0.0 mm 0.00 in0.0 mm 0.00 in0.0 mm
01:00 AM 64.2°F17.9°C 62.7°F17.1°C 95% 3.0 mph NW4.8 kmh NW 9.0 mph14.5 kmh 29.77 in1008.1 mb 0.00 in0.0 mm 0.00 in0.0 mm 0.00 in0.0 mm
01:15 AM 63.5°F17.5°C 62.1°F16.7°C 95% Calm Calm 6.0 mph9.7 kmh 29.78 in1008.5 mb 0.00 in0.0 mm 0.00 in0.0 mm 0.00 in0.0 mm
01:30 AM 63.2°F17.3°C 61.8°F16.6°C 95% Calm Calm 6.0 mph9.7 kmh 29.79 in1008.8 mb 0.00 in0.0 mm 0.00 in0.0 mm 0.00 in0.0 mm
01:45 AM 62.7°F17.1°C 61.3°F16.3°C 95% Calm Calm 4.0 mph6.4 kmh 29.78 in1008.5 mb 0.00 in0.0 mm 0.00 in0.0 mm 0.00 in0.0 mm
02:00 AM 62.3°F16.8°C 60.9°F16.1°C 95% 2.0 mph W3.2 kmh W 6.0 mph9.7 kmh 29.81 in1009.5 mb 0.00 in0.0 mm 0.00 in0.0 mm 0.00 in0.0 mm
02:15 AM 61.8°F16.6°C 60.4°F15.8°C 95% 4.0 mph NW6.4 kmh NW 8.0 mph12.9 kmh 29.78 in1008.5 mb 0.00 in0.0 mm 0.00 in0.0 mm 0.00 in0.0 mm
02:30 AM 61.5°F16.4°C 60.1°F15.6°C 95% Calm Calm 8.0 mph12.9 kmh 29.82 in1009.8 mb 0.00 in0.0 mm 0.00 in0.0 mm 0.00 in0.0 mm
02:45 AM 61.0°F16.1°C 59.6°F15.3°C 95% Calm Calm 7.0 mph11.3 kmh 29.85 in1010.8 mb 0.00 in0.0 mm 0.00 in0.0 mm 0.00 in0.0 mm
03:00 AM 60.4°F15.8°C 59.0°F15.0°C 95% 3.0 mph NW4.8 kmh NW 3.0 mph4.8 kmh 29.85 in1010.8 mb 0.00 in0.0 mm 0.00 in0.0 mm 0.00 in0.0 mm
03:15 AM 59.9°F15.5°C 58.5°F14.7°C 95% Calm Calm 7.0 mph11.3 kmh 29.82 in1009.8 mb 0.00 in0.0 mm 0.00 in0.0 mm 0.00 in0.0 mm
03:30 AM 59.5°F15.3°C 58.1°F14.5°C 95% 3.0 mph SSW4.8 kmh SSW 8.0 mph12.9 kmh 29.86 in1011.2 mb 0.00 in0.0 mm 0.00 in0.0 mm 0.00 in0.0 mm
03:45 AM 59.2°F15.1°C 58.1°F14.5°C 96% 1.0 mph NW1.6 kmh NW 7.0 mph11.3 kmh 29.84 in1010.5 mb 0.00 in0.0 mm 0.00 in0.0 mm 0.00 in0.0 mm
04:00 AM 58.9°F14.9°C 57.5°F14.2°C 95% Calm Calm 7.0 mph11.3 kmh 29.85 in1010.8 mb 0.00 in0.0 mm 0.00 in0.0 mm 0.00 in0.0 mm
04:15 AM 58.5°F14.7°C 57.1°F13.9°C 95% Calm Calm 4.0 mph6.4 kmh 29.86 in1011.2 mb 0.00 in0.0 mm 0.00 in0.0 mm 0.00 in0.0 mm
04:30 AM 58.4°F14.7°C 57.0°F13.9°C 95% Calm Calm 4.0 mph6.4 kmh 29.85 in1010.8 mb 0.00 in0.0 mm 0.00 in0.0 mm 0.00 in0.0 mm
04:45 AM 58.2°F14.6°C 56.8°F13.8°C 95% Calm Calm 6.0 mph9.7 kmh 29.85 in1010.8 mb 0.00 in0.0 mm 0.00 in0.0 mm 0.00 in0.0 mm
05:00 AM 57.5°F14.2°C 56.1°F13.4°C 95% Calm Calm 7.0 mph11.3 kmh 29.86 in1011.2 mb 0.00 in0.0 mm 0.00 in0.0 mm 0.00 in0.0 mm
05:15 AM 57.1°F13.9°C 55.7°F13.2°C 95% Calm Calm 5.0 mph8.0 kmh 29.88 in1011.9 mb 0.00 in0.0 mm 0.00 in0.0 mm 0.00 in0.0 mm
05:30 AM 56.9°F13.8°C 55.5°F13.1°C 95% Calm Calm 5.0 mph8.0 kmh 29.89 in1012.2 mb 0.00 in0.0 mm 0.00 in0.0 mm 0.00 in0.0 mm
05:45 AM 56.7°F13.7°C 55.3°F12.9°C 95% Calm Calm 5.0 mph8.0 kmh 29.86 in1011.2 mb 0.00 in0.0 mm 0.00 in0.0 mm 0.00 in0.0 mm
06:00 AM 56.4°F13.6°C 55.0°F12.8°C 95% Calm Calm 5.0 mph8.0 kmh 29.84 in1010.5 mb 0.00 in0.0 mm 0.00 in0.0 mm 0.00 in0.0 mm
06:15 AM 56.1°F13.4°C 54.7°F12.6°C 95% Calm Calm 1.0 mph1.6 kmh 29.89 in1012.2 mb 0.00 in0.0 mm 0.00 in0.0 mm 0.00 in0.0 mm
06:30 AM 56.1°F13.4°C 54.7°F12.6°C 95% Calm Calm 1.0 mph1.6 kmh 29.88 in1011.9 mb 0.00 in0.0 mm 0.00 in0.0 mm 0.00 in0.0 mm
06:45 AM 56.0°F13.3°C 54.6°F12.6°C 95% Calm Calm 4.0 mph6.4 kmh 29.86 in1011.2 mb 0.00 in0.0 mm 0.00 in0.0 mm 0.00 in0.0 mm
07:00 AM 55.9°F13.3°C 54.5°F12.5°C 95% 1.0 mph NE1.6 kmh NE 4.0 mph6.4 kmh 29.87 in1011.5 mb 0.00 in0.0 mm 0.00 in0.0 mm 0.00 in0.0 mm
07:15 AM 55.8°F13.2°C 54.4°F12.4°C 95% Calm Calm 3.0 mph4.8 kmh 29.88 in1011.9 mb 0.00 in0.0 mm 0.00 in0.0 mm 0.00 in0.0 mm
07:30 AM 55.5°F13.1°C 54.1°F12.3°C 95% 1.0 mph ENE1.6 kmh ENE 3.0 mph4.8 kmh 29.87 in1011.5 mb 0.00 in0.0 mm 0.00 in0.0 mm 0.00 in0.0 mm
07:45 AM 55.4°F13.0°C 54.0°F12.2°C 95% Calm Calm 3.0 mph4.8 kmh 29.88 in1011.9 mb 0.00 in0.0 mm 0.00 in0.0 mm 0.00 in0.0 mm
08:00 AM 55.0°F12.8°C 53.3°F11.8°C 94% Calm Calm 4.0 mph6.4 kmh 29.90 in1012.5 mb 0.00 in0.0 mm 0.00 in0.0 mm 0.00 in0.0 mm
08:15 AM 54.5°F12.5°C 52.8°F11.6°C 94% 1.0 mph NE1.6 kmh NE 8.0 mph12.9 kmh 29.85 in1010.8 mb 0.00 in0.0 mm 0.00 in0.0 mm 0.00 in0.0 mm
08:30 AM 54.2°F12.3°C 52.5°F11.4°C 94% Calm Calm 9.0 mph14.5 kmh 29.89 in1012.2 mb 0.00 in0.0 mm 0.00 in0.0 mm 0.00 in0.0 mm
08:45 AM 54.1°F12.3°C 52.7°F11.5°C 95% Calm Calm 4.0 mph6.4 kmh 29.91 in1012.9 mb 0.00 in0.0 mm 0.00 in0.0 mm 0.00 in0.0 mm
09:00 AM 54.1°F12.3°C 52.7°F11.5°C 95% Calm Calm 4.0 mph6.4 kmh 29.90 in1012.5 mb 0.00 in0.0 mm 0.00 in0.0 mm 0.00 in0.0 mm
09:15 AM 54.1°F12.3°C 52.7°F11.5°C 95% 3.0 mph NNW4.8 kmh NNW 6.0 mph9.7 kmh 29.91 in1012.9 mb 0.01 in0.3 mm 0.04 in1.0 mm 0.01 in0.3 mm
09:30 AM 54.0°F12.2°C 52.6°F11.4°C 95% Calm Calm 7.0 mph11.3 kmh 29.93 in1013.5 mb 0.01 in0.3 mm 0.00 in0.0 mm 0.01 in0.3 mm
09:45 AM 53.9°F12.2°C 52.5°F11.4°C 95% Calm Calm 4.0 mph6.4 kmh 29.94 in1013.9 mb 0.02 in0.5 mm 0.04 in1.0 mm 0.02 in0.5 mm
10:00 AM 53.9°F12.2°C 52.5°F11.4°C 95% Calm Calm 4.0 mph6.4 kmh 29.93 in1013.5 mb 0.02 in0.5 mm 0.00 in0.0 mm 0.02 in0.5 mm
10:15 AM 53.7°F12.1°C 52.6°F11.4°C 96% 1.0 mph W1.6 kmh W 5.0 mph8.0 kmh 29.95 in1014.2 mb 0.02 in0.5 mm 0.00 in0.0 mm 0.02 in0.5 mm
10:30 AM 53.6°F12.0°C 52.5°F11.4°C 96% 2.0 mph E3.2 kmh E 8.0 mph12.9 kmh 29.92 in1013.2 mb 0.04 in1.0 mm 0.08 in2.0 mm 0.04 in1.0 mm
10:45 AM 53.2°F11.8°C 52.1°F11.2°C 96% Calm Calm 7.0 mph11.3 kmh 29.88 in1011.9 mb 0.07 in1.8 mm 0.12 in3.0 mm 0.07 in1.8 mm
11:00 AM 53.0°F11.7°C 51.9°F11.1°C 96% 4.0 mph N6.4 kmh N 7.0 mph11.3 kmh 29.89 in1012.2 mb 0.09 in2.3 mm 0.03 in0.8 mm 0.09 in2.3 mm
11:15 AM 53.1°F11.7°C 52.0°F11.1°C 96% Calm Calm 7.0 mph11.3 kmh 29.93 in1013.5 mb 0.08 in2.0 mm 0.00 in0.0 mm 0.09 in2.3 mm
11:30 AM 53.2°F11.8°C 52.4°F11.3°C 97% Calm Calm 7.0 mph11.3 kmh 29.87 in1011.5 mb 0.08 in2.0 mm 0.00 in0.0 mm 0.09 in2.3 mm
11:45 AM 53.2°F11.8°C 52.4°F11.3°C 97% Calm Calm 6.0 mph9.7 kmh 29.95 in1014.2 mb 0.05 in1.3 mm 0.00 in0.0 mm 0.09 in2.3 mm
12:00 PM 53.2°F11.8°C 52.4°F11.3°C 97% 1.0 mph SW1.6 kmh SW 6.0 mph9.7 kmh 29.93 in1013.5 mb 0.06 in1.5 mm 0.01 in0.3 mm 0.10 in2.5 mm
12:15 PM 53.2°F11.8°C 52.4°F11.3°C 97% 1.0 mph NNE1.6 kmh NNE 6.0 mph9.7 kmh 29.92 in1013.2 mb 0.01 in0.3 mm 0.00 in0.0 mm 0.10 in2.5 mm
12:30 PM 53.3°F11.8°C 52.5°F11.4°C 97% 5.0 mph N8.0 kmh N 6.0 mph9.7 kmh 29.92 in1013.2 mb 0.01 in0.3 mm 0.00 in0.0 mm 0.10 in2.5 mm
12:45 PM 53.1°F11.7°C 52.3°F11.3°C 97% Calm Calm 4.0 mph6.4 kmh 29.91 in1012.9 mb 0.01 in0.3 mm 0.00 in0.0 mm 0.10 in2.5 mm
01:00 PM 52.9°F11.6°C 52.1°F11.2°C 97% 2.0 mph NW3.2 kmh NW 5.0 mph8.0 kmh 29.89 in1012.2 mb 0.01 in0.3 mm 0.00 in0.0 mm 0.10 in2.5 mm
01:15 PM 52.7°F11.5°C 51.9°F11.1°C 97% Calm Calm 5.0 mph8.0 kmh 29.92 in1013.2 mb 0.01 in0.3 mm 0.00 in0.0 mm 0.10 in2.5 mm
01:30 PM 52.5°F11.4°C 51.7°F10.9°C 97% Calm Calm 6.0 mph9.7 kmh 29.90 in1012.5 mb 0.01 in0.3 mm 0.00 in0.0 mm 0.10 in2.5 mm
01:45 PM 52.5°F11.4°C 51.7°F10.9°C 97% Calm Calm 3.0 mph4.8 kmh 29.90 in1012.5 mb 0.02 in0.5 mm 0.04 in1.0 mm 0.11 in2.8 mm
02:00 PM 52.5°F11.4°C 51.7°F10.9°C 97% Calm Calm 5.0 mph8.0 kmh 29.92 in1013.2 mb 0.03 in0.8 mm 0.01 in0.3 mm 0.12 in3.0 mm
02:15 PM 52.4°F11.3°C 51.6°F10.9°C 97% Calm Calm 3.0 mph4.8 kmh 29.91 in1012.9 mb 0.04 in1.0 mm 0.04 in1.0 mm 0.13 in3.3 mm
02:30 PM 52.4°F11.3°C 51.6°F10.9°C 97% Calm Calm 4.0 mph6.4 kmh 29.92 in1013.2 mb 0.05 in1.3 mm 0.04 in1.0 mm 0.14 in3.6 mm
02:45 PM 52.5°F11.4°C 51.7°F10.9°C 97% Calm Calm 3.0 mph4.8 kmh 29.92 in1013.2 mb 0.05 in1.3 mm 0.00 in0.0 mm 0.14 in3.6 mm
03:00 PM 52.3°F11.3°C 51.5°F10.8°C 97% Calm Calm 4.0 mph6.4 kmh 29.92 in1013.2 mb 0.07 in1.8 mm 0.03 in0.8 mm 0.16 in4.1 mm
03:15 PM 52.1°F11.2°C 51.3°F10.7°C 97% Calm Calm 4.0 mph6.4 kmh 29.91 in1012.9 mb 0.06 in1.5 mm 0.00 in0.0 mm 0.16 in4.1 mm
03:30 PM 52.0°F11.1°C 51.2°F10.7°C 97% 1.0 mph NNW1.6 kmh NNW 7.0 mph11.3 kmh 29.91 in1012.9 mb 0.06 in1.5 mm 0.00 in0.0 mm 0.16 in4.1 mm
03:45 PM 51.8°F11.0°C 51.0°F10.6°C 97% 4.0 mph NNW6.4 kmh NNW 6.0 mph9.7 kmh 29.90 in1012.5 mb 0.04 in1.0 mm 0.00 in0.0 mm 0.16 in4.1 mm
04:00 PM 51.6°F10.9°C 50.8°F10.4°C 97% Calm Calm 6.0 mph9.7 kmh 29.91 in1012.9 mb 0.04 in1.0 mm 0.00 in0.0 mm 0.16 in4.1 mm
04:15 PM 51.6°F10.9°C 50.8°F10.4°C 97% Calm Calm 5.0 mph8.0 kmh 29.91 in1012.9 mb 0.02 in0.5 mm 0.00 in0.0 mm 0.16 in4.1 mm
04:30 PM 51.6°F10.9°C 50.8°F10.4°C 97% 2.0 mph N3.2 kmh N 5.0 mph8.0 kmh 29.91 in1012.9 mb 0.03 in0.8 mm 0.04 in1.0 mm 0.17 in4.3 mm
04:45 PM 51.5°F10.8°C 50.7°F10.4°C 97% Calm Calm 5.0 mph8.0 kmh 29.91 in1012.9 mb 0.03 in0.8 mm 0.00 in0.0 mm 0.17 in4.3 mm
05:00 PM 51.4°F10.8°C 50.6°F10.3°C 97% Calm Calm 6.0 mph9.7 kmh 29.91 in1012.9 mb 0.05 in1.3 mm 0.03 in0.8 mm 0.19 in4.8 mm
05:15 PM 51.2°F10.7°C 50.4°F10.2°C 97% Calm Calm 7.0 mph11.3 kmh 29.89 in1012.2 mb 0.07 in1.8 mm 0.08 in2.0 mm 0.21 in5.3 mm
05:30 PM 51.1°F10.6°C 50.3°F10.2°C 97% Calm Calm 7.0 mph11.3 kmh 29.89 in1012.2 mb 0.08 in2.0 mm 0.04 in1.0 mm 0.22 in5.6 mm
05:45 PM 51.0°F10.6°C 50.2°F10.1°C 97% Calm Calm 5.0 mph8.0 kmh 29.91 in1012.9 mb 0.07 in1.8 mm 0.00 in0.0 mm 0.22 in5.6 mm
06:00 PM 50.9°F10.5°C 50.1°F10.1°C 97% Calm Calm 5.0 mph8.0 kmh 29.91 in1012.9 mb 0.07 in1.8 mm 0.00 in0.0 mm 0.22 in5.6 mm
06:15 PM 50.7°F10.4°C 49.9°F9.9°C 97% Calm Calm 5.0 mph8.0 kmh 29.92 in1013.2 mb 0.05 in1.3 mm 0.00 in0.0 mm 0.22 in5.6 mm
06:30 PM 50.6°F10.3°C 49.8°F9.9°C 97% Calm Calm 5.0 mph8.0 kmh 29.91 in1012.9 mb 0.05 in1.3 mm 0.00 in0.0 mm 0.22 in5.6 mm
06:45 PM 50.7°F10.4°C 49.9°F9.9°C 97% Calm Calm 4.0 mph6.4 kmh 29.91 in1012.9 mb 0.02 in0.5 mm 0.00 in0.0 mm 0.22 in5.6 mm
07:00 PM 50.6°F10.3°C 49.8°F9.9°C 97% Calm Calm 5.0 mph8.0 kmh 29.90 in1012.5 mb 0.02 in0.5 mm 0.00 in0.0 mm 0.22 in5.6 mm
07:15 PM 50.5°F10.3°C 49.7°F9.8°C 97% Calm Calm 3.0 mph4.8 kmh 29.90 in1012.5 mb 0.02 in0.5 mm 0.00 in0.0 mm 0.22 in5.6 mm
07:30 PM 50.5°F10.3°C 49.7°F9.8°C 97% Calm Calm 6.0 mph9.7 kmh 29.90 in1012.5 mb 0.02 in0.5 mm 0.00 in0.0 mm 0.22 in5.6 mm
07:45 PM 50.4°F10.2°C 49.9°F9.9°C 98% Calm Calm 6.0 mph9.7 kmh 29.90 in1012.5 mb 0.01 in0.3 mm 0.00 in0.0 mm 0.22 in5.6 mm
08:00 PM 50.4°F10.2°C 49.9°F9.9°C 98% 1.0 mph SE1.6 kmh SE 7.0 mph11.3 kmh 29.90 in1012.5 mb 0.01 in0.3 mm 0.00 in0.0 mm 0.22 in5.6 mm
08:15 PM 50.4°F10.2°C 49.9°F9.9°C 98% Calm Calm 6.0 mph9.7 kmh 29.91 in1012.9 mb 0.01 in0.3 mm 0.00 in0.0 mm 0.22 in5.6 mm
08:30 PM 50.4°F10.2°C 49.9°F9.9°C 98% Calm Calm 6.0 mph9.7 kmh 29.93 in1013.5 mb 0.01 in0.3 mm 0.00 in0.0 mm 0.22 in5.6 mm
08:45 PM 50.4°F10.2°C 49.9°F9.9°C 98% Calm Calm 3.0 mph4.8 kmh 29.92 in1013.2 mb 0.00 in0.0 mm 0.00 in0.0 mm 0.22 in5.6 mm
09:00 PM 50.4°F10.2°C 49.9°F9.9°C 98% Calm Calm 3.0 mph4.8 kmh 29.93 in1013.5 mb 0.00 in0.0 mm 0.00 in0.0 mm 0.22 in5.6 mm
09:15 PM 50.5°F10.3°C 50.0°F10.0°C 98% Calm Calm 1.0 mph1.6 kmh 29.93 in1013.5 mb 0.00 in0.0 mm 0.00 in0.0 mm 0.22 in5.6 mm
09:30 PM 50.6°F10.3°C 50.1°F10.1°C 98% Calm Calm 1.0 mph1.6 kmh 29.94 in1013.9 mb 0.00 in0.0 mm 0.00 in0.0 mm 0.22 in5.6 mm
09:45 PM 50.6°F10.3°C 50.1°F10.1°C 98% Calm Calm 1.0 mph1.6 kmh 29.94 in1013.9 mb 0.00 in0.0 mm 0.00 in0.0 mm 0.22 in5.6 mm
10:00 PM 50.7°F10.4°C 50.2°F10.1°C 98% Calm Calm 2.0 mph3.2 kmh 29.94 in1013.9 mb 0.00 in0.0 mm 0.00 in0.0 mm 0.22 in5.6 mm
10:15 PM 50.7°F10.4°C 50.2°F10.1°C 98% Calm Calm 2.0 mph3.2 kmh 29.94 in1013.9 mb 0.00 in0.0 mm 0.00 in0.0 mm 0.22 in5.6 mm
10:30 PM 50.7°F10.4°C 50.2°F10.1°C 98% Calm Calm 2.0 mph3.2 kmh 29.94 in1013.9 mb 0.00 in0.0 mm 0.00 in0.0 mm 0.22 in5.6 mm
10:45 PM 50.7°F10.4°C 50.2°F10.1°C 98% Calm Calm 2.0 mph3.2 kmh 29.94 in1013.9 mb 0.00 in0.0 mm 0.00 in0.0 mm 0.22 in5.6 mm
11:00 PM 50.7°F10.4°C 50.2°F10.1°C 98% Calm Calm 6.0 mph9.7 kmh 29.95 in1014.2 mb 0.00 in0.0 mm 0.00 in0.0 mm 0.22 in5.6 mm
11:15 PM 50.7°F10.4°C 50.2°F10.1°C 98% Calm Calm 2.0 mph3.2 kmh 29.93 in1013.5 mb 0.00 in0.0 mm 0.00 in0.0 mm 0.22 in5.6 mm
11:30 PM 50.7°F10.4°C 50.2°F10.1°C 98% Calm Calm 4.0 mph6.4 kmh 29.93 in1013.5 mb 0.00 in0.0 mm 0.00 in0.0 mm 0.22 in5.6 mm
11:45 PM 50.7°F10.4°C 50.2°F10.1°C 98% Calm Calm 4.0 mph6.4 kmh 29.94 in1013.9 mb 0.00 in0.0 mm 0.00 in0.0 mm 0.22 in5.6 mm